Time;durP1;ratioP1;P1;durP2;ratioP2;P2;SDS_P1;SDS_P2;PMS_P1;PMS_P2;Temp;Humidity;BMP_temperature;BMP_pressure;BME280_temperature;BME280_humidity;BME280_pressure;Samples;Min_cycle;Max_cycle;Signal;HPM_P1;HPM_P2
2023/08/12 00:00:55;;;;;;;;;4.00;4.00;;;;;-143.47;100.00;63865.75;2098347;28;46624;-61
2023/08/12 00:01:56;;;;;;;;;3.33;3.33;;;;;-143.47;100.00;63865.75;2105160;27;46353;-61
2023/08/12 00:02:56;;;;;;;;;4.00;3.00;;;;;-143.47;100.00;63865.75;2103375;27;46698;-60
2023/08/12 00:03:56;;;;;;;;;6.00;5.33;;;;;-143.47;100.00;63865.75;2104197;27;46611;-60
2023/08/12 00:04:57;;;;;;;;;3.67;3.67;;;;;-143.47;100.00;63865.75;2096732;28;46307;-60
2023/08/12 00:06:00;;;;;;;;;4.00;4.00;;;;;-143.47;100.00;63865.75;2093798;28;46410;-62
2023/08/12 00:07:00;;;;;;;;;4.50;4.50;;;;;-143.47;100.00;63865.75;2093571;28;46560;-60
2023/08/12 00:08:01;;;;;;;;;4.00;4.00;;;;;-143.47;100.00;63865.75;2103802;28;46829;-61
2023/08/12 00:09:03;;;;;;;;;4.67;4.00;;;;;-143.47;100.00;63865.75;2103317;27;46165;-63
2023/08/12 00:10:04;;;;;;;;;5.00;4.25;;;;;-143.47;100.00;63865.75;2098789;28;46433;-60
2023/08/12 00:11:05;;;;;;;;;6.50;5.00;;;;;-143.47;100.00;63865.75;2101587;28;46840;-60
2023/08/12 00:12:05;;;;;;;;;5.00;5.00;;;;;-143.47;100.00;63865.75;2100907;27;46646;-61
2023/08/12 00:13:05;;;;;;;;;6.00;6.00;;;;;-143.47;100.00;63865.75;2104818;28;46827;-60
2023/08/12 00:14:06;;;;;;;;;4.00;4.00;;;;;-143.47;100.00;63865.75;2102324;28;46315;-60
2023/08/12 00:15:08;;;;;;;;;4.00;4.00;;;;;-143.47;100.00;63865.75;2104923;28;46463;-61
2023/08/12 00:16:08;;;;;;;;;4.00;3.50;;;;;-143.47;100.00;63865.75;2104252;28;46919;-61
2023/08/12 00:17:08;;;;;;;;;6.67;6.67;;;;;-143.47;100.00;63865.75;2103230;27;46590;-61
2023/08/12 00:18:09;;;;;;;;;4.33;4.33;;;;;-143.47;100.00;63865.75;2105496;27;46295;-61
2023/08/12 00:19:09;;;;;;;;;4.00;3.67;;;;;-143.47;100.00;63865.75;2102630;28;46095;-61
2023/08/12 00:20:11;;;;;;;;;4.00;4.00;;;;;-143.47;100.00;63865.75;2100321;28;46826;-60
2023/08/12 00:21:11;;;;;;;;;5.00;5.00;;;;;-143.47;100.00;63865.75;2105648;27;46550;-57
2023/08/12 00:22:12;;;;;;;;;4.67;4.67;;;;;-143.47;100.00;63865.75;2099010;27;46267;-60
2023/08/12 00:23:13;;;;;;;;;5.75;4.00;;;;;-143.47;100.00;63865.75;2099853;28;45679;-59
2023/08/12 00:24:13;;;;;;;;;4.33;3.00;;;;;-143.47;100.00;63865.75;2104375;28;46306;-59
2023/08/12 00:25:14;;;;;;;;;3.33;3.33;;;;;-143.47;100.00;63865.75;2103519;28;46781;-61
2023/08/12 00:26:15;;;;;;;;;4.00;4.00;;;;;-143.47;100.00;63865.75;2105252;27;46607;-61
2023/08/12 00:27:15;;;;;;;;;3.00;3.00;;;;;-143.47;100.00;63865.75;2103307;27;46467;-61
2023/08/12 00:28:15;;;;;;;;;4.33;4.33;;;;;-143.47;100.00;63865.75;2103270;27;46922;-60
2023/08/12 00:29:16;;;;;;;;;6.33;5.00;;;;;-143.47;100.00;63865.75;2105161;27;46776;-61
2023/08/12 00:30:16;;;;;;;;;5.00;5.00;;;;;-143.47;100.00;63865.75;2103220;27;46460;-61
2023/08/12 00:31:16;;;;;;;;;6.00;6.00;;;;;-143.47;100.00;63865.75;2104149;27;46786;-61
2023/08/12 00:32:17;;;;;;;;;5.00;5.00;;;;;-143.47;100.00;63865.75;2104225;28;46625;-61
2023/08/12 00:33:18;;;;;;;;;3.33;3.33;;;;;-143.47;100.00;63865.75;2103010;27;46516;-60
2023/08/12 00:34:18;;;;;;;;;2.75;2.75;;;;;-143.47;100.00;63865.75;2105323;27;46491;-62
2023/08/12 00:35:18;;;;;;;;;5.00;5.00;;;;;-143.47;100.00;63865.75;2096885;27;46350;-60
2023/08/12 00:36:19;;;;;;;;;5.33;4.33;;;;;-143.47;100.00;63865.75;2096893;28;46152;-61
2023/08/12 00:37:19;;;;;;;;;4.00;4.00;;;;;-143.47;100.00;63865.75;2097152;28;46614;-62
2023/08/12 00:38:19;;;;;;;;;3.67;3.67;;;;;-143.47;100.00;63865.75;2100747;28;46534;-61
2023/08/12 00:39:20;;;;;;;;;5.67;5.00;;;;;-143.47;100.00;63865.75;2103729;27;46595;-61
2023/08/12 00:40:20;;;;;;;;;3.67;3.67;;;;;-143.47;100.00;63865.75;2105025;27;46866;-61
2023/08/12 00:41:20;;;;;;;;;5.00;4.00;;;;;-143.47;100.00;63865.75;2102681;27;46682;-61
2023/08/12 00:42:21;;;;;;;;;3.67;3.67;;;;;-143.47;100.00;63865.75;2105076;28;46801;-61
2023/08/12 00:43:21;;;;;;;;;5.00;4.67;;;;;-143.47;100.00;63865.75;2102663;27;45168;-61
2023/08/12 00:44:21;;;;;;;;;4.67;4.67;;;;;-143.47;100.00;63865.75;2105129;27;46705;-61
2023/08/12 00:45:22;;;;;;;;;4.00;4.00;;;;;-143.47;100.00;63865.75;2103972;28;46720;-61
2023/08/12 00:46:24;;;;;;;;;7.00;5.00;;;;;-143.47;100.00;63865.75;2102421;27;46532;-60
2023/08/12 00:47:24;;;;;;;;;3.75;3.75;;;;;-143.47;100.00;63865.75;2103760;27;46291;-62
2023/08/12 00:48:25;;;;;;;;;4.00;4.00;;;;;-143.47;100.00;63865.75;2101461;28;46404;-60
2023/08/12 00:49:26;;;;;;;;;5.00;5.00;;;;;-143.47;100.00;63865.75;2101258;27;47111;-62
2023/08/12 00:50:28;;;;;;;;;5.50;4.75;;;;;-143.47;100.00;63865.75;2096557;28;46464;-61
2023/08/12 00:51:28;;;;;;;;;2.25;2.25;;;;;-143.47;100.00;63865.75;2099156;28;46589;-62
2023/08/12 00:52:29;;;;;;;;;6.00;5.00;;;;;-143.47;100.00;63865.75;2104212;28;46593;-61
2023/08/12 00:53:29;;;;;;;;;5.00;4.00;;;;;-143.47;100.00;63865.75;2103948;27;46733;-60
2023/08/12 00:54:30;;;;;;;;;5.00;5.00;;;;;-143.47;100.00;63865.75;2104552;27;46947;-60
2023/08/12 00:55:30;;;;;;;;;3.00;3.00;;;;;-143.47;100.00;63865.75;2105607;27;46435;-58
2023/08/12 00:56:31;;;;;;;;;5.00;5.00;;;;;-143.47;100.00;63865.75;2105236;27;46390;-60
2023/08/12 00:57:32;;;;;;;;;5.00;5.00;;;;;-143.47;100.00;63865.75;2101997;27;45079;-61
2023/08/12 00:58:32;;;;;;;;;3.00;3.00;;;;;-143.47;100.00;63865.75;2102355;27;46572;-60
2023/08/12 00:59:35;;;;;;;;;4.00;4.00;;;;;-143.47;100.00;63865.75;2096995;28;46964;-61
2023/08/12 01:00:36;;;;;;;;;5.75;5.75;;;;;-143.47;100.00;63865.75;2096278;28;46585;-61
2023/08/12 01:01:43;;;;;;;;;6.00;5.00;;;;;-143.47;100.00;63865.75;2113053;27;46765;-62
2023/08/12 01:02:47;;;;;;;;;4.25;4.25;;;;;-143.47;100.00;63865.75;2111115;27;46356;-62
2023/08/12 01:03:48;;;;;;;;;4.25;4.25;;;;;-143.47;100.00;63865.75;2096433;28;46572;-61
2023/08/12 01:04:48;;;;;;;;;3.00;3.00;;;;;-143.47;100.00;63865.75;2097000;28;46641;-61
2023/08/12 01:05:49;;;;;;;;;6.00;4.33;;;;;-143.47;100.00;63865.75;2097640;28;46686;-59
2023/08/12 01:06:50;;;;;;;;;5.75;4.75;;;;;-143.47;100.00;63865.75;2104816;27;46818;-61
2023/08/12 01:07:50;;;;;;;;;4.00;4.00;;;;;-143.47;100.00;63865.75;2099509;28;46449;-61
2023/08/12 01:08:51;;;;;;;;;5.00;5.00;;;;;-143.47;100.00;63865.75;2086704;28;46733;-61
2023/08/12 01:09:51;;;;;;;;;5.00;5.00;;;;;-143.47;100.00;63865.75;2096964;28;46561;-61
2023/08/12 01:11:11;;;;;;;;;4.00;3.00;;;;;-143.47;100.00;63865.75;2099077;28;46263;-61
2023/08/12 01:12:18;;;;;;;;;4.50;4.50;;;;;-143.47;100.00;63865.75;2096797;27;46923;-60
2023/08/12 01:13:49;;;;;;;;;4.75;4.75;;;;;-143.47;100.00;63865.75;2096399;28;46371;-60
2023/08/12 01:15:09;;;;;;;;;5.50;5.00;;;;;-143.47;100.00;63865.75;2102362;28;46944;-60
2023/08/12 01:16:12;;;;;;;;;4.00;4.00;;;;;-143.47;100.00;63865.75;2105050;27;46943;-61
2023/08/12 01:17:15;;;;;;;;;4.50;4.50;;;;;-143.47;100.00;63865.75;2103911;27;46734;-61
2023/08/12 01:18:16;;;;;;;;;6.00;6.00;;;;;-143.47;100.00;63865.75;2105112;27;46511;-60
2023/08/12 01:19:28;;;;;;;;;5.50;5.50;;;;;-143.47;100.00;63865.75;2103935;27;46960;-62
2023/08/12 01:20:30;;;;;;;;;3.75;3.75;;;;;-143.47;100.00;63865.75;2092527;28;46771;-61
2023/08/12 01:21:32;;;;;;;;;3.25;3.25;;;;;-143.47;100.00;63865.75;2104744;28;46377;-61
2023/08/12 01:22:36;;;;;;;;;6.25;5.75;;;;;-143.47;100.00;63865.75;2102315;28;46062;-61
2023/08/12 01:23:37;;;;;;;;;6.75;6.50;;;;;-143.47;100.00;63865.75;2104286;27;46605;-62
2023/08/12 01:24:39;;;;;;;;;4.33;4.33;;;;;-143.47;100.00;63865.75;2105145;27;46583;-61
2023/08/12 01:25:40;;;;;;;;;7.50;4.75;;;;;-143.47;100.00;63865.75;2100736;27;46447;-61
2023/08/12 01:26:40;;;;;;;;;4.75;4.75;;;;;-143.47;100.00;63865.75;2096414;28;46648;-61
2023/08/12 01:27:41;;;;;;;;;4.00;4.00;;;;;-143.47;100.00;63865.75;2104636;28;46589;-61
2023/08/12 01:28:41;;;;;;;;;3.67;3.67;;;;;-143.47;100.00;63865.75;2104801;27;46515;-61
2023/08/12 01:29:49;;;;;;;;;4.25;4.25;;;;;-143.47;100.00;63865.75;2104826;27;46901;-62
2023/08/12 01:31:04;;;;;;;;;5.00;5.00;;;;;-143.47;100.00;63865.75;2105213;27;46655;-61
2023/08/12 01:32:20;;;;;;;;;6.00;6.00;;;;;-143.47;100.00;63865.75;2102869;27;46930;-61
2023/08/12 01:33:46;;;;;;;;;5.25;5.25;;;;;-143.47;100.00;63865.75;2104598;27;46377;-61
2023/08/12 01:34:53;;;;;;;;;6.25;5.75;;;;;-143.47;100.00;63865.75;2070891;28;46912;-61
2023/08/12 01:36:04;;;;;;;;;6.50;6.25;;;;;-143.47;100.00;63865.75;2062106;28;46619;-60
2023/08/12 01:37:07;;;;;;;;;6.75;6.75;;;;;-143.47;100.00;63865.75;2062182;28;46493;-61
2023/08/12 01:38:09;;;;;;;;;8.50;7.00;;;;;-143.47;100.00;63865.75;2062674;28;46750;-61
2023/08/12 01:39:10;;;;;;;;;5.00;5.00;;;;;-143.47;100.00;63865.75;2062102;28;46439;-61
2023/08/12 01:40:13;;;;;;;;;4.00;4.00;;;;;-143.47;100.00;63865.75;2062686;28;46922;-61
2023/08/12 01:41:16;;;;;;;;;4.25;4.25;;;;;-143.47;100.00;63865.75;2062467;28;46854;-58
2023/08/12 01:42:19;;;;;;;;;4.75;4.75;;;;;-143.47;100.00;63865.75;2062809;28;46376;-59
2023/08/12 01:43:20;;;;;;;;;5.00;5.00;;;;;-143.47;100.00;63865.75;2062631;28;46596;-61
2023/08/12 01:44:20;;;;;;;;;3.33;3.33;;;;;-143.47;100.00;63865.75;2062752;28;46288;-61
2023/08/12 01:45:22;;;;;;;;;6.00;5.00;;;;;-143.47;100.00;63865.75;2062968;28;46753;-60
2023/08/12 01:46:22;;;;;;;;;4.75;4.75;;;;;-143.47;100.00;63865.75;2062451;28;46982;-59
2023/08/12 01:47:22;;;;;;;;;5.00;4.00;;;;;-143.47;100.00;63865.75;2062748;28;46539;-61
2023/08/12 01:48:23;;;;;;;;;6.33;4.67;;;;;-143.47;100.00;63865.75;2062206;28;46691;-60
2023/08/12 01:49:24;;;;;;;;;5.00;5.00;;;;;-143.47;100.00;63865.75;2054574;28;46594;-61
2023/08/12 01:50:25;;;;;;;;;6.00;4.75;;;;;-143.47;100.00;63865.75;2054523;28;46097;-60
2023/08/12 01:51:26;;;;;;;;;6.00;5.00;;;;;-143.47;100.00;63865.75;2062585;28;46545;-62
2023/08/12 01:52:26;;;;;;;;;4.00;4.00;;;;;-143.47;100.00;63865.75;2062237;28;46231;-62
2023/08/12 01:53:26;;;;;;;;;3.00;3.00;;;;;-143.47;100.00;63865.75;2062878;28;46192;-60
2023/08/12 01:54:26;;;;;;;;;6.00;5.33;;;;;-143.47;100.00;63865.75;2062373;28;46194;-59
2023/08/12 01:55:27;;;;;;;;;5.67;5.67;;;;;-143.47;100.00;63865.75;2063243;28;46536;-61
2023/08/12 01:56:28;;;;;;;;;5.00;4.33;;;;;-143.47;100.00;63865.75;2061909;28;46310;-61
2023/08/12 01:57:28;;;;;;;;;4.00;4.00;;;;;-143.47;100.00;63865.75;2064112;28;46075;-61
2023/08/12 01:58:28;;;;;;;;;7.00;4.67;;;;;-143.47;100.00;63865.75;2064540;28;46877;-61
2023/08/12 01:59:28;;;;;;;;;3.67;3.67;;;;;-143.47;100.00;63865.75;2063238;28;46517;-61
2023/08/12 02:00:29;;;;;;;;;4.67;4.67;;;;;-143.47;100.00;63865.75;2055896;28;46083;-60
2023/08/12 02:01:29;;;;;;;;;3.00;2.33;;;;;-143.47;100.00;63865.75;2055754;28;46323;-59
2023/08/12 02:02:29;;;;;;;;;3.00;3.00;;;;;-143.47;100.00;63865.75;2063853;28;46202;-60
2023/08/12 02:03:30;;;;;;;;;1.33;1.33;;;;;-143.47;100.00;63865.75;2063603;28;45733;-63
2023/08/12 02:04:30;;;;;;;;;2.67;2.67;;;;;-143.47;100.00;63865.75;2059688;28;46794;-60
2023/08/12 02:05:31;;;;;;;;;1.33;1.00;;;;;-143.47;100.00;63865.75;2054402;28;46772;-59
2023/08/12 02:06:31;;;;;;;;;4.00;2.67;;;;;-143.47;100.00;63865.75;2063894;28;46447;-61
2023/08/12 02:07:31;;;;;;;;;2.00;2.00;;;;;-143.47;100.00;63865.75;2055827;28;46381;-59
2023/08/12 02:08:32;;;;;;;;;3.00;1.67;;;;;-143.47;100.00;63865.75;2055840;28;46549;-59
2023/08/12 02:09:32;;;;;;;;;2.00;2.00;;;;;-143.47;100.00;63865.75;2055525;28;46008;-61
2023/08/12 02:10:32;;;;;;;;;3.00;3.00;;;;;-143.47;100.00;63865.75;2064019;28;46828;-60
2023/08/12 02:11:33;;;;;;;;;3.33;2.00;;;;;-143.47;100.00;63865.75;2063830;28;46717;-60
2023/08/12 02:12:33;;;;;;;;;1.33;1.33;;;;;-143.47;100.00;63865.75;2083734;28;46729;-60
2023/08/12 02:13:33;;;;;;;;;2.00;2.00;;;;;-143.47;100.00;63865.75;2104105;27;46449;-61
2023/08/12 02:14:36;;;;;;;;;1.67;1.67;;;;;-143.47;100.00;63865.75;2105401;28;46866;-60
2023/08/12 02:15:36;;;;;;;;;2.00;2.00;;;;;-143.47;100.00;63865.75;2106325;27;46847;-61
2023/08/12 02:16:36;;;;;;;;;3.67;3.00;;;;;-143.47;100.00;63865.75;2105965;27;46448;-61
2023/08/12 02:17:37;;;;;;;;;2.00;2.00;;;;;-143.47;100.00;63865.75;2100559;27;46504;-61
2023/08/12 02:18:37;;;;;;;;;1.33;1.33;;;;;-143.47;100.00;63865.75;2080872;28;45937;-61
2023/08/12 02:19:37;;;;;;;;;3.00;2.00;;;;;-143.47;100.00;63865.75;2080377;28;46316;-61
2023/08/12 02:20:39;;;;;;;;;1.33;1.00;;;;;-143.47;100.00;63865.75;2098641;28;46363;-62
2023/08/12 02:21:41;;;;;;;;;1.00;1.00;;;;;-143.47;100.00;63865.75;2096076;28;46695;-60
2023/08/12 02:22:41;;;;;;;;;2.00;2.00;;;;;-143.47;100.00;63865.75;2098307;28;46502;-61
2023/08/12 02:23:44;;;;;;;;;3.00;3.00;;;;;-143.47;100.00;63865.75;2100784;28;46203;-59
2023/08/12 02:24:44;;;;;;;;;2.00;2.00;;;;;-143.47;100.00;63865.75;2105939;27;46872;-60
2023/08/12 02:25:44;;;;;;;;;1.00;1.00;;;;;-143.47;100.00;63865.75;2100480;27;46164;-61
2023/08/12 02:26:45;;;;;;;;;1.67;1.67;;;;;-143.47;100.00;63865.75;2097565;28;46727;-61
2023/08/12 02:27:45;;;;;;;;;2.33;1.00;;;;;-143.47;100.00;63865.75;2097980;28;46639;-61
2023/08/12 02:28:45;;;;;;;;;0.67;0.67;;;;;-143.47;100.00;63865.75;2093928;28;46392;-59
2023/08/12 02:29:46;;;;;;;;;2.67;2.00;;;;;-143.47;100.00;63865.75;2088925;28;46506;-58
2023/08/12 02:30:46;;;;;;;;;1.00;1.00;;;;;-143.47;100.00;63865.75;2089336;28;46882;-60
2023/08/12 02:31:46;;;;;;;;;1.00;1.00;;;;;-143.47;100.00;63865.75;2089170;28;46465;-59
2023/08/12 02:32:47;;;;;;;;;1.33;1.00;;;;;-143.47;100.00;63865.75;2089196;28;46569;-61
2023/08/12 02:33:49;;;;;;;;;1.00;1.00;;;;;-143.47;100.00;63865.75;2089660;28;46382;-62
2023/08/12 02:34:49;;;;;;;;;1.00;1.00;;;;;-143.47;100.00;63865.75;2089358;28;45223;-61
2023/08/12 02:35:53;;;;;;;;;1.00;1.00;;;;;-143.47;100.00;63865.75;2089124;28;46206;-61
2023/08/12 02:36:53;;;;;;;;;2.00;2.00;;;;;-143.47;100.00;63865.75;2093707;28;46223;-62
2023/08/12 02:37:53;;;;;;;;;1.67;1.67;;;;;-143.47;100.00;63865.75;2100062;28;46559;-61
2023/08/12 02:38:54;;;;;;;;;1.00;1.00;;;;;-143.47;100.00;63865.75;2090431;27;46188;-60
2023/08/12 02:39:54;;;;;;;;;1.33;1.00;;;;;-143.47;100.00;63865.75;2092347;28;45547;-60
2023/08/12 02:40:55;;;;;;;;;0.33;0.00;;;;;-143.47;100.00;63865.75;2097845;28;46654;-61
2023/08/12 02:41:55;;;;;;;;;2.00;2.00;;;;;-143.47;100.00;63865.75;2107729;27;46868;-62
2023/08/12 02:42:56;;;;;;;;;1.00;1.00;;;;;-143.47;100.00;63865.75;2106387;27;46504;-62
2023/08/12 02:43:56;;;;;;;;;1.00;1.00;;;;;-143.47;100.00;63865.75;2097525;28;46284;-61
2023/08/12 02:44:56;;;;;;;;;0.00;0.00;;;;;-143.47;100.00;63865.75;2097349;28;46379;-58
2023/08/12 02:45:56;;;;;;;;;0.00;0.00;;;;;-143.47;100.00;63865.75;2097517;28;46327;-60
2023/08/12 02:46:57;;;;;;;;;1.00;1.00;;;;;-143.47;100.00;63865.75;2097015;28;45584;-60
2023/08/12 02:47:57;;;;;;;;;0.67;0.67;;;;;-143.47;100.00;63865.75;2097052;28;45474;-60
2023/08/12 02:48:57;;;;;;;;;1.00;1.00;;;;;-143.47;100.00;63865.75;2097346;28;46770;-59
2023/08/12 02:49:58;;;;;;;;;2.00;0.00;;;;;-143.47;100.00;63865.75;2098940;28;46585;-61
2023/08/12 02:50:58;;;;;;;;;1.00;1.00;;;;;-143.47;100.00;63865.75;2094150;28;46267;-60
2023/08/12 02:51:58;;;;;;;;;0.00;0.00;;;;;-143.47;100.00;63865.75;2103973;28;46646;-60
2023/08/12 02:52:59;;;;;;;;;1.00;1.00;;;;;-143.47;100.00;63865.75;2101617;28;45559;-61
2023/08/12 02:53:59;;;;;;;;;1.00;1.00;;;;;-143.47;100.00;63865.75;2097853;28;46810;-61
2023/08/12 02:54:59;;;;;;;;;0.67;0.67;;;;;-143.47;100.00;63865.75;2103064;28;46403;-61
2023/08/12 02:56:00;;;;;;;;;0.00;0.00;;;;;-143.47;100.00;63865.75;2102721;27;46871;-61
2023/08/12 02:57:00;;;;;;;;;2.00;1.00;;;;;-143.47;100.00;63865.75;2105852;27;46250;-62
2023/08/12 02:58:01;;;;;;;;;0.00;0.00;;;;;-143.47;100.00;63865.75;2104742;27;46507;-59
2023/08/12 02:59:01;;;;;;;;;0.25;0.25;;;;;-143.47;100.00;63865.75;2099361;27;46919;-62
2023/08/12 03:00:04;;;;;;;;;1.33;1.00;;;;;-143.47;100.00;63865.75;2096841;28;46767;-60
2023/08/12 03:01:04;;;;;;;;;1.75;0.75;;;;;-143.47;100.00;63865.75;2097154;28;46291;-61
2023/08/12 03:02:04;;;;;;;;;0.00;0.00;;;;;-143.47;100.00;63865.75;2097742;28;46567;-61
2023/08/12 03:03:05;;;;;;;;;0.00;0.00;;;;;-143.47;100.00;63865.75;2097620;28;46359;-61
2023/08/12 03:04:05;;;;;;;;;1.00;1.00;;;;;-143.47;100.00;63865.75;2097205;28;46334;-59
2023/08/12 03:05:06;;;;;;;;;0.33;0.33;;;;;-143.47;100.00;63865.75;2097543;28;46446;-61
2023/08/12 03:06:06;;;;;;;;;2.00;1.00;;;;;-143.47;100.00;63865.75;2100949;28;46388;-61
2023/08/12 03:07:07;;;;;;;;;0.00;0.00;;;;;-143.47;100.00;63865.75;2105255;28;47103;-61
2023/08/12 03:08:07;;;;;;;;;0.00;0.00;;;;;-143.47;100.00;63865.75;2104413;27;45514;-60
2023/08/12 03:09:07;;;;;;;;;1.33;0.00;;;;;-143.47;100.00;63865.75;2098783;27;46647;-61
2023/08/12 03:10:08;;;;;;;;;1.00;1.00;;;;;-143.47;100.00;63865.75;2096541;28;46839;-61
2023/08/12 03:11:08;;;;;;;;;0.00;0.00;;;;;-143.47;100.00;63865.75;2097743;28;46568;-62
2023/08/12 03:12:09;;;;;;;;;0.00;0.00;;;;;-143.47;100.00;63865.75;2095158;28;46353;-61
2023/08/12 03:13:09;;;;;;;;;1.00;1.00;;;;;-143.47;100.00;63865.75;2099881;28;46209;-60
2023/08/12 03:14:09;;;;;;;;;1.00;1.00;;;;;-143.47;100.00;63865.75;2093817;28;46155;-59
2023/08/12 03:15:10;;;;;;;;;1.67;1.67;;;;;-143.47;100.00;63865.75;2088889;28;46981;-61
2023/08/12 03:16:15;;;;;;;;;0.00;0.00;;;;;-143.47;100.00;63865.75;2088882;28;46859;-61
2023/08/12 03:17:15;;;;;;;;;0.25;0.25;;;;;-143.47;100.00;63865.75;2088915;28;46762;-61
2023/08/12 03:18:15;;;;;;;;;0.67;0.67;;;;;-143.47;100.00;63865.75;2089183;28;46308;-61
2023/08/12 03:19:16;;;;;;;;;0.00;0.00;;;;;-143.47;100.00;63865.75;2089171;28;46587;-61
2023/08/12 03:20:16;;;;;;;;;0.00;0.00;;;;;-143.47;100.00;63865.75;2092417;28;46713;-60
2023/08/12 03:21:16;;;;;;;;;1.00;0.00;;;;;-143.47;100.00;63865.75;2097369;28;46494;-61
2023/08/12 03:22:17;;;;;;;;;0.00;0.00;;;;;-143.47;100.00;63865.75;2097049;28;46782;-61
2023/08/12 03:23:17;;;;;;;;;0.33;0.33;;;;;-143.47;100.00;63865.75;2097363;28;46705;-61
2023/08/12 03:24:17;;;;;;;;;0.00;0.00;;;;;-143.47;100.00;63865.75;2097232;28;46726;-59
2023/08/12 03:25:19;;;;;;;;;0.00;0.00;;;;;-143.47;100.00;63865.75;2093388;28;46818;-59
2023/08/12 03:26:19;;;;;;;;;0.00;0.00;;;;;-143.47;100.00;63865.75;2089144;28;46782;-61
2023/08/12 03:27:20;;;;;;;;;0.00;0.00;;;;;-143.47;100.00;63865.75;2088736;28;46185;-61
2023/08/12 03:28:20;;;;;;;;;0.00;0.00;;;;;-143.47;100.00;63865.75;2089153;28;46162;-61
2023/08/12 03:29:20;;;;;;;;;0.00;0.00;;;;;-143.47;100.00;63865.75;2088869;28;46775;-60
2023/08/12 03:30:21;;;;;;;;;0.00;0.00;;;;;-143.47;100.00;63865.75;2093670;28;46309;-60
2023/08/12 03:31:21;;;;;;;;;0.00;0.00;;;;;-143.47;100.00;63865.75;2105944;27;46477;-59
2023/08/12 03:32:21;;;;;;;;;0.67;0.33;;;;;-143.47;100.00;63865.75;2097787;27;46734;-60
2023/08/12 03:33:22;;;;;;;;;0.00;0.00;;;;;-143.47;100.00;63865.75;2096983;28;46527;-61
2023/08/12 03:34:22;;;;;;;;;0.00;0.00;;;;;-143.47;100.00;63865.75;2087745;28;46331;-61
2023/08/12 03:35:23;;;;;;;;;0.00;0.00;;;;;-143.47;100.00;63865.75;2079987;28;46249;-60
2023/08/12 03:36:23;;;;;;;;;0.00;0.00;;;;;-143.47;100.00;63865.75;2079866;28;45361;-60
2023/08/12 03:37:23;;;;;;;;;0.00;0.00;;;;;-143.47;100.00;63865.75;2088748;28;46152;-61
2023/08/12 03:38:24;;;;;;;;;0.00;0.00;;;;;-143.47;100.00;63865.75;2088151;28;46425;-60
2023/08/12 03:39:24;;;;;;;;;0.00;0.00;;;;;-143.47;100.00;63865.75;2087880;28;46400;-60
2023/08/12 03:40:24;;;;;;;;;0.00;0.00;;;;;-143.47;100.00;63865.75;2088236;28;46416;-61
2023/08/12 03:41:25;;;;;;;;;0.00;0.00;;;;;-143.47;100.00;63865.75;2088475;28;46324;-61
2023/08/12 03:42:25;;;;;;;;;0.00;0.00;;;;;-143.47;100.00;63865.75;2087664;28;45351;-60
2023/08/12 03:43:25;;;;;;;;;0.00;0.00;;;;;-143.47;100.00;63865.75;2088577;28;46262;-59
2023/08/12 03:44:26;;;;;;;;;0.00;0.00;;;;;-143.47;100.00;63865.75;2088014;28;46792;-61
2023/08/12 03:45:26;;;;;;;;;0.00;0.00;;;;;-143.47;100.00;63865.75;2079308;28;46282;-61
2023/08/12 03:46:26;;;;;;;;;0.00;0.00;;;;;-143.47;100.00;63865.75;2081372;28;46403;-60
2023/08/12 03:47:26;;;;;;;;;1.00;1.00;;;;;-143.47;100.00;63865.75;2087988;28;46185;-58
2023/08/12 03:48:27;;;;;;;;;0.33;0.00;;;;;-143.47;100.00;63865.75;2079062;28;46279;-61
2023/08/12 03:49:27;;;;;;;;;0.00;0.00;;;;;-143.47;100.00;63865.75;2079629;28;46440;-59
2023/08/12 03:50:28;;;;;;;;;0.00;0.00;;;;;-143.47;100.00;63865.75;2087881;28;46695;-61
2023/08/12 03:51:28;;;;;;;;;0.00;0.00;;;;;-143.47;100.00;63865.75;2090840;28;46338;-61
2023/08/12 03:52:28;;;;;;;;;0.00;0.00;;;;;-143.47;100.00;63865.75;2096233;28;46408;-60
2023/08/12 03:53:29;;;;;;;;;0.00;0.00;;;;;-143.47;100.00;63865.75;2094493;28;45734;-60
2023/08/12 03:54:29;;;;;;;;;1.00;0.00;;;;;-143.47;100.00;63865.75;2077613;28;46752;-62
2023/08/12 03:55:31;;;;;;;;;0.00;0.00;;;;;-143.47;100.00;63865.75;2079239;28;46504;-60
2023/08/12 03:56:32;;;;;;;;;0.00;0.00;;;;;-143.47;100.00;63865.75;2095040;28;46325;-61
2023/08/12 03:57:32;;;;;;;;;1.00;1.00;;;;;-143.47;100.00;63865.75;2094611;28;46344;-61
2023/08/12 03:58:32;;;;;;;;;0.00;0.00;;;;;-143.47;100.00;63865.75;2087982;28;46696;-61
2023/08/12 03:59:33;;;;;;;;;0.00;0.00;;;;;-143.47;100.00;63865.75;2091416;28;46234;-61
2023/08/12 04:00:33;;;;;;;;;0.00;0.00;;;;;-143.47;100.00;63865.75;2079320;28;46186;-61
2023/08/12 04:01:33;;;;;;;;;0.67;0.00;;;;;-143.47;100.00;63865.75;2078199;28;46805;-61
2023/08/12 04:02:34;;;;;;;;;0.00;0.00;;;;;-143.47;100.00;63865.75;2093181;28;45810;-59
2023/08/12 04:03:34;;;;;;;;;0.00;0.00;;;;;-143.47;100.00;63865.75;2096018;28;46831;-59
2023/08/12 04:04:35;;;;;;;;;0.00;0.00;;;;;-143.47;100.00;63865.75;2094933;28;46805;-60
2023/08/12 04:05:35;;;;;;;;;0.00;0.00;;;;;-143.47;100.00;63865.75;2095129;28;46302;-59
2023/08/12 04:06:37;;;;;;;;;0.00;0.00;;;;;-143.47;100.00;63865.75;2105173;28;46663;-60
2023/08/12 04:07:37;;;;;;;;;0.00;0.00;;;;;-143.47;100.00;63865.75;2104546;27;46802;-62
2023/08/12 04:08:37;;;;;;;;;0.00;0.00;;;;;-143.47;100.00;63865.75;2105862;27;46355;-60
2023/08/12 04:09:38;;;;;;;;;0.00;0.00;;;;;-143.47;100.00;63865.75;2097444;27;46357;-60
2023/08/12 04:10:38;;;;;;;;;0.00;0.00;;;;;-143.47;100.00;63865.75;2099112;28;46752;-60
2023/08/12 04:11:38;;;;;;;;;0.67;0.67;;;;;-143.47;100.00;63865.75;2105134;27;46568;-61
2023/08/12 04:12:40;;;;;;;;;0.00;0.00;;;;;-143.47;100.00;63865.75;2101482;28;46613;-61
2023/08/12 04:13:40;;;;;;;;;0.00;0.00;;;;;-143.47;100.00;63865.75;2105364;27;46351;-61
2023/08/12 04:14:41;;;;;;;;;0.00;0.00;;;;;-143.47;100.00;63865.75;2105140;28;46287;-60
2023/08/12 04:15:41;;;;;;;;;0.00;0.00;;;;;-143.47;100.00;63865.75;2104697;28;46445;-60
2023/08/12 04:16:42;;;;;;;;;0.00;0.00;;;;;-143.47;100.00;63865.75;2105466;27;46858;-61
2023/08/12 04:17:42;;;;;;;;;0.00;0.00;;;;;-143.47;100.00;63865.75;2104313;28;46491;-61
2023/08/12 04:18:43;;;;;;;;;0.00;0.00;;;;;-143.47;100.00;63865.75;2104455;27;46870;-61
2023/08/12 04:19:43;;;;;;;;;1.00;1.00;;;;;-143.47;100.00;63865.75;2100059;27;46665;-63
2023/08/12 04:20:45;;;;;;;;;0.00;0.00;;;;;-143.47;100.00;63865.75;2102824;28;46181;-62
2023/08/12 04:21:46;;;;;;;;;0.00;0.00;;;;;-143.47;100.00;63865.75;2104883;27;46877;-61
2023/08/12 04:22:46;;;;;;;;;0.00;0.00;;;;;-143.47;100.00;63865.75;2096708;28;46295;-61
2023/08/12 04:23:50;;;;;;;;;0.00;0.00;;;;;-143.47;100.00;63865.75;2101320;28;46332;-61
2023/08/12 04:24:50;;;;;;;;;0.00;0.00;;;;;-143.47;100.00;63865.75;2104601;27;45785;-62
2023/08/12 04:25:52;;;;;;;;;0.00;0.00;;;;;-143.47;100.00;63865.75;2104633;28;46224;-61
2023/08/12 04:26:52;;;;;;;;;0.00;0.00;;;;;-143.47;100.00;63865.75;2104373;28;46309;-61
2023/08/12 04:27:53;;;;;;;;;0.33;0.33;;;;;-143.47;100.00;63865.75;2105014;27;46248;-61
2023/08/12 04:28:53;;;;;;;;;0.00;0.00;;;;;-143.47;100.00;63865.75;2104442;27;46729;-60
2023/08/12 04:29:53;;;;;;;;;0.00;0.00;;;;;-143.47;100.00;63865.75;2098283;27;46708;-62
2023/08/12 04:30:53;;;;;;;;;0.00;0.00;;;;;-143.47;100.00;63865.75;2096737;28;46545;-62
2023/08/12 04:31:54;;;;;;;;;0.00;0.00;;;;;-143.47;100.00;63865.75;2101825;28;46697;-60
2023/08/12 04:32:54;;;;;;;;;0.00;0.00;;;;;-143.47;100.00;63865.75;2104698;27;46293;-60
2023/08/12 04:33:54;;;;;;;;;0.00;0.00;;;;;-143.47;100.00;63865.75;2096430;28;46277;-58
2023/08/12 04:34:55;;;;;;;;;0.00;0.00;;;;;-143.47;100.00;63865.75;2101352;28;46420;-59
2023/08/12 04:35:55;;;;;;;;;0.00;0.00;;;;;-143.47;100.00;63865.75;2105456;27;46394;-61
2023/08/12 04:36:55;;;;;;;;;0.00;0.00;;;;;-143.47;100.00;63865.75;2097573;27;46837;-61
2023/08/12 04:37:56;;;;;;;;;0.00;0.00;;;;;-143.47;100.00;63865.75;2098112;28;46329;-60
2023/08/12 04:38:56;;;;;;;;;0.00;0.00;;;;;-143.47;100.00;63865.75;2105633;27;46181;-62